Time;durP1;ratioP1;P1;durP2;ratioP2;P2;SDS_P1;SDS_P2;PMS_P1;PMS_P2;Temp;Humidity;BMP_temperature;BMP_pressure;BME280_temperature;BME280_humidity;BME280_pressure;Samples;Min_cycle;Max_cycle;Signal;HPM_P1;HPM_P2
2023/09/11 00:02:22;;;;;;;20.48;14.65;;;21.10;99.90;;;;;;5016299;28;20408;-67
2023/09/11 00:04:49;;;;;;;21.05;13.93;;;21.10;99.90;;;;;;5015758;28;20064;-67
2023/09/11 00:07:16;;;;;;;23.75;13.77;;;21.10;99.90;;;;;;5034675;28;20116;-66
2023/09/11 00:09:42;;;;;;;18.88;14.55;;;21.10;99.90;;;;;;5016452;28;20448;-67
2023/09/11 00:12:11;;;;;;;26.80;13.88;;;21.10;99.90;;;;;;5033427;28;20095;-67
2023/09/11 00:14:38;;;;;;;23.63;16.05;;;21.00;99.90;;;;;;5016396;28;20053;-67
2023/09/11 00:17:05;;;;;;;26.88;14.57;;;21.00;99.90;;;;;;5016301;28;20457;-67
2023/09/11 00:19:32;;;;;;;22.15;13.93;;;21.00;99.90;;;;;;5015811;28;20354;-67
2023/09/11 00:21:59;;;;;;;24.55;14.68;;;21.00;99.90;;;;;;5034221;28;20053;-66
2023/09/11 00:24:25;;;;;;;25.80;15.27;;;20.90;99.90;;;;;;5016268;28;20057;-67
2023/09/11 00:26:52;;;;;;;19.55;13.68;;;20.90;99.90;;;;;;5033684;28;20396;-67
2023/09/11 00:29:21;;;;;;;23.77;13.23;;;20.90;99.90;;;;;;5034116;28;20444;-67
2023/09/11 00:31:48;;;;;;;17.50;13.48;;;20.90;99.90;;;;;;5016285;28;20042;-67
2023/09/11 00:34:15;;;;;;;20.85;15.00;;;20.80;99.90;;;;;;5015578;28;20057;-67
2023/09/11 00:36:42;;;;;;;26.48;14.40;;;20.80;99.90;;;;;;5016205;28;20053;-67
2023/09/11 00:39:09;;;;;;;23.10;14.45;;;20.80;99.90;;;;;;5015141;28;20048;-67
2023/09/11 00:41:36;;;;;;;23.63;14.52;;;20.70;99.90;;;;;;5015228;28;20091;-66
2023/09/11 00:44:04;;;;;;;22.95;14.35;;;20.70;99.90;;;;;;5015794;28;20135;-67
2023/09/11 00:46:32;;;;;;;17.67;13.82;;;20.70;99.90;;;;;;5015439;28;20064;-66
2023/09/11 00:49:00;;;;;;;22.83;13.65;;;20.70;99.90;;;;;;5033635;28;20049;-67
2023/09/11 00:51:27;;;;;;;19.02;14.25;;;20.70;99.90;;;;;;5015743;28;20052;-67
2023/09/11 00:53:55;;;;;;;24.17;13.88;;;20.70;99.90;;;;;;5014854;28;20049;-66
2023/09/11 00:56:22;;;;;;;23.90;14.25;;;20.70;99.90;;;;;;5015788;28;20115;-66
2023/09/11 00:58:50;;;;;;;26.10;13.65;;;20.60;99.90;;;;;;5015611;28;20046;-66
2023/09/11 01:01:17;;;;;;;23.60;12.60;;;20.60;99.90;;;;;;5014775;28;20111;-66
2023/09/11 01:03:47;;;;;;;19.50;14.02;;;20.60;99.90;;;;;;5033139;28;20056;-67
2023/09/11 01:06:14;;;;;;;22.83;13.75;;;20.60;99.90;;;;;;5015565;28;20052;-67
2023/09/11 01:08:41;;;;;;;25.02;13.88;;;20.60;99.90;;;;;;5015012;28;20060;-67
2023/09/11 01:11:08;;;;;;;22.52;12.93;;;20.60;99.90;;;;;;5015318;28;20057;-67
2023/09/11 01:13:35;;;;;;;21.65;13.35;;;20.60;99.90;;;;;;5015442;28;20052;-68
2023/09/11 01:16:07;;;;;;;21.80;13.85;;;20.60;99.90;;;;;;5014502;28;20053;-67
2023/09/11 01:18:41;;;;;;;20.42;13.90;;;20.60;99.90;;;;;;5014507;28;20045;-67
2023/09/11 01:21:32;;;;;;;19.90;13.07;;;20.60;99.90;;;;;;5031575;28;20049;-67
2023/09/11 01:24:28;;;;;;;22.67;13.73;;;20.60;99.90;;;;;;5033077;28;20045;-67
2023/09/11 01:27:19;;;;;;;22.00;13.57;;;20.50;99.90;;;;;;5015283;28;20491;-67
2023/09/11 01:29:49;;;;;;;19.85;13.50;;;20.50;99.90;;;;;;5032359;28;20056;-67
2023/09/11 01:32:18;;;;;;;18.88;13.88;;;20.50;99.90;;;;;;5014898;28;20494;-66
2023/09/11 01:34:45;;;;;;;23.67;12.93;;;20.50;99.90;;;;;;5014882;28;20154;-66
2023/09/11 01:37:12;;;;;;;23.80;13.25;;;20.50;99.90;;;;;;5012118;28;20386;-67
2023/09/11 01:39:39;;;;;;;18.27;13.10;;;20.50;99.90;;;;;;5014880;28;20405;-68
2023/09/11 01:42:09;;;;;;;20.33;13.45;;;20.40;99.90;;;;;;5032473;28;20405;-67
2023/09/11 01:44:42;;;;;;;23.58;12.95;;;20.40;99.90;;;;;;5014134;28;20049;-67
2023/09/11 01:47:13;;;;;;;19.10;14.30;;;20.40;99.90;;;;;;5014762;28;20053;-67
2023/09/11 01:49:40;;;;;;;24.20;14.18;;;20.40;99.90;;;;;;5031412;28;20398;-68
2023/09/11 01:52:08;;;;;;;22.45;13.30;;;20.40;99.90;;;;;;5032514;28;20048;-67
2023/09/11 01:54:36;;;;;;;23.30;12.73;;;20.40;99.90;;;;;;5032421;28;20103;-67
2023/09/11 01:57:04;;;;;;;19.83;13.38;;;20.40;99.90;;;;;;5031968;28;20092;-67
2023/09/11 01:59:32;;;;;;;19.08;14.02;;;20.40;99.90;;;;;;5014287;28;20057;-67
2023/09/11 02:01:59;;;;;;;27.17;13.70;;;20.40;99.90;;;;;;5014282;28;20359;-67
2023/09/11 02:04:27;;;;;;;24.77;13.30;;;20.40;99.90;;;;;;5013741;28;20042;-67
2023/09/11 02:06:54;;;;;;;19.70;13.15;;;20.40;99.90;;;;;;5014599;28;20128;-67
2023/09/11 02:09:21;;;;;;;27.77;13.20;;;20.40;99.90;;;;;;5012407;28;20046;-68
2023/09/11 02:11:48;;;;;;;19.23;12.95;;;20.30;99.90;;;;;;5013937;28;20147;-66
2023/09/11 02:14:14;;;;;;;21.17;12.88;;;20.30;99.90;;;;;;5032007;28;20058;-67
2023/09/11 02:16:41;;;;;;;21.50;13.27;;;20.30;99.90;;;;;;5014440;28;20049;-67
2023/09/11 02:19:08;;;;;;;26.80;12.55;;;20.30;99.90;;;;;;5014070;28;20960;-67
2023/09/11 02:21:37;;;;;;;23.85;13.38;;;20.30;99.90;;;;;;5014190;28;20056;-67
2023/09/11 02:24:04;;;;;;;23.08;13.63;;;20.30;99.90;;;;;;5014305;28;20049;-67
2023/09/11 02:26:31;;;;;;;22.35;13.15;;;20.30;99.90;;;;;;5031619;28;20048;-67
2023/09/11 02:28:59;;;;;;;29.05;14.60;;;20.30;99.90;;;;;;5014274;28;20053;-67
2023/09/11 02:31:26;;;;;;;23.35;13.52;;;20.20;99.90;;;;;;5032130;28;20049;-66
2023/09/11 02:33:53;;;;;;;23.02;14.18;;;20.30;99.90;;;;;;5013685;28;20056;-66
2023/09/11 02:36:20;;;;;;;31.30;13.55;;;20.30;99.90;;;;;;5031877;28;20472;-66
2023/09/11 02:38:49;;;;;;;20.17;12.50;;;20.20;99.90;;;;;;5012290;28;20056;-65
2023/09/11 02:41:15;;;;;;;24.35;13.30;;;20.30;99.90;;;;;;5031326;28;20053;-66
2023/09/11 02:43:42;;;;;;;18.80;12.52;;;20.30;99.90;;;;;;5031768;28;20087;-66
2023/09/11 02:46:09;;;;;;;26.33;13.35;;;20.30;99.90;;;;;;5031413;28;20053;-66
2023/09/11 02:48:38;;;;;;;23.17;13.65;;;20.20;99.90;;;;;;5031934;28;20053;-66
2023/09/11 02:51:04;;;;;;;26.83;13.55;;;20.20;99.90;;;;;;5013860;28;20050;-69
2023/09/11 02:53:31;;;;;;;24.85;13.32;;;20.20;99.90;;;;;;5013230;28;20053;-67
2023/09/11 02:56:00;;;;;;;25.75;14.77;;;20.20;99.90;;;;;;5013784;28;20111;-67
2023/09/11 02:58:27;;;;;;;31.15;14.02;;;20.20;99.90;;;;;;5013989;28;20061;-68
2023/09/11 03:00:54;;;;;;;22.92;14.55;;;20.10;99.90;;;;;;5014158;28;20100;-66
2023/09/11 03:03:21;;;;;;;23.25;13.80;;;20.10;99.90;;;;;;4995663;28;20050;-67
2023/09/11 03:05:56;;;;;;;25.33;13.88;;;20.10;99.90;;;;;;4995692;28;20050;-67
2023/09/11 03:08:23;;;;;;;27.27;13.25;;;20.10;99.90;;;;;;4995265;28;20096;-66
2023/09/11 03:10:50;;;;;;;22.38;13.82;;;20.10;99.90;;;;;;4995795;28;20439;-66
2023/09/11 03:13:18;;;;;;;27.17;14.23;;;20.00;99.90;;;;;;4993980;28;20038;-66
2023/09/11 03:15:45;;;;;;;23.33;14.32;;;20.00;99.90;;;;;;4992275;28;20552;-65
2023/09/11 03:18:12;;;;;;;22.75;14.32;;;20.00;99.90;;;;;;4993915;28;20092;-66
2023/09/11 03:20:39;;;;;;;25.98;14.27;;;19.90;99.90;;;;;;4988296;28;20121;-66
2023/09/11 03:23:06;;;;;;;23.88;14.65;;;19.90;99.90;;;;;;4994742;28;20057;-66
2023/09/11 03:25:34;;;;;;;30.80;14.45;;;19.90;99.90;;;;;;4990381;28;20518;-65
2023/09/11 03:28:01;;;;;;;28.88;15.27;;;19.80;99.90;;;;;;4995351;28;20054;-68
2023/09/11 03:30:29;;;;;;;37.35;14.57;;;19.80;99.90;;;;;;4994728;28;20104;-67
2023/09/11 03:32:56;;;;;;;23.83;14.93;;;19.80;99.90;;;;;;4995140;28;20050;-66
2023/09/11 03:35:24;;;;;;;25.45;14.68;;;19.80;99.90;;;;;;4991530;28;20101;-68
2023/09/11 03:37:52;;;;;;;21.42;13.73;;;19.80;99.90;;;;;;4993549;28;20502;-66
2023/09/11 03:40:20;;;;;;;21.05;14.00;;;19.90;99.90;;;;;;4982059;28;20050;-68
2023/09/11 03:42:47;;;;;;;26.42;13.93;;;19.80;99.90;;;;;;4992270;28;20483;-68
2023/09/11 03:45:14;;;;;;;30.75;14.77;;;19.80;99.90;;;;;;4989734;28;20050;-67
2023/09/11 03:47:42;;;;;;;24.38;14.23;;;19.80;99.90;;;;;;4993298;28;20042;-67
2023/09/11 03:50:10;;;;;;;28.63;14.32;;;19.80;99.90;;;;;;4993337;28;20046;-68
2023/09/11 03:52:37;;;;;;;20.27;13.80;;;19.80;99.90;;;;;;4992092;28;20059;-68
2023/09/11 03:55:05;;;;;;;25.08;15.05;;;19.80;99.90;;;;;;4994367;28;20109;-67
2023/09/11 03:57:32;;;;;;;24.67;15.20;;;19.80;99.90;;;;;;4991520;28;20051;-67
2023/09/11 03:59:59;;;;;;;24.02;13.93;;;19.90;99.90;;;;;;4992620;28;20442;-67
2023/09/11 04:02:26;;;;;;;22.45;12.90;;;19.80;99.90;;;;;;5017416;28;20389;-67
2023/09/11 04:04:54;;;;;;;29.83;15.30;;;19.90;99.90;;;;;;5015513;28;20417;-67
2023/09/11 04:07:21;;;;;;;21.67;13.70;;;20.00;99.90;;;;;;5032704;28;20057;-67
2023/09/11 04:09:48;;;;;;;26.27;14.02;;;20.00;99.90;;;;;;5015507;28;20061;-66
2023/09/11 04:12:16;;;;;;;27.40;14.45;;;20.00;99.90;;;;;;5013535;28;20050;-67
2023/09/11 04:14:43;;;;;;;25.60;14.50;;;19.90;99.90;;;;;;5032945;28;20049;-68
2023/09/11 04:17:11;;;;;;;22.45;14.20;;;19.90;99.90;;;;;;5014620;28;20378;-67
2023/09/11 04:19:38;;;;;;;21.60;12.85;;;19.90;99.90;;;;;;5032333;28;20046;-66
2023/09/11 04:22:07;;;;;;;23.80;13.07;;;20.10;99.90;;;;;;5014803;28;20049;-67
2023/09/11 04:24:34;;;;;;;22.90;13.55;;;20.00;99.90;;;;;;5013047;28;20060;-68
2023/09/11 04:27:00;;;;;;;23.30;12.68;;;19.90;99.90;;;;;;5014387;28;20410;-67
2023/09/11 04:29:29;;;;;;;18.92;13.00;;;19.90;99.90;;;;;;5032278;28;20162;-66
2023/09/11 04:31:56;;;;;;;26.77;13.95;;;19.90;99.90;;;;;;5010732;28;20386;-67
2023/09/11 04:34:23;;;;;;;28.80;14.13;;;19.80;99.90;;;;;;5013265;28;20053;-66
2023/09/11 04:36:50;;;;;;;28.30;13.65;;;19.80;99.90;;;;;;5030479;28;20056;-68
2023/09/11 04:39:18;;;;;;;29.63;13.98;;;19.80;99.90;;;;;;5010701;28;20060;-68
2023/09/11 04:41:45;;;;;;;27.48;14.02;;;19.70;99.90;;;;;;5015004;28;20061;-68
2023/09/11 04:44:12;;;;;;;21.92;13.90;;;19.70;99.90;;;;;;5030983;28;20049;-68
2023/09/11 04:46:39;;;;;;;25.45;13.52;;;19.70;99.90;;;;;;5012491;28;20049;-68
2023/09/11 04:49:06;;;;;;;29.25;14.15;;;19.70;99.90;;;;;;5029873;28;20787;-67
2023/09/11 04:51:33;;;;;;;23.88;13.38;;;19.70;99.90;;;;;;5013046;28;20334;-66
2023/09/11 04:54:00;;;;;;;23.92;14.55;;;19.70;99.90;;;;;;5030072;28;20046;-67
2023/09/11 04:56:28;;;;;;;25.33;14.02;;;19.70;99.90;;;;;;5032550;28;20049;-68
2023/09/11 04:58:55;;;;;;;29.63;12.88;;;19.70;99.90;;;;;;5030393;28;20045;-68
2023/09/11 05:01:22;;;;;;;26.27;13.40;;;19.70;99.90;;;;;;5012330;28;20061;-67
2023/09/11 05:03:49;;;;;;;27.23;13.90;;;19.70;99.90;;;;;;5012976;28;20053;-66
2023/09/11 05:06:16;;;;;;;23.60;13.80;;;19.70;99.90;;;;;;5032205;28;20060;-67
2023/09/11 05:08:43;;;;;;;22.77;12.85;;;19.80;99.90;;;;;;5013537;28;20053;-67
2023/09/11 05:11:10;;;;;;;28.20;12.60;;;19.80;99.90;;;;;;5032681;28;20048;-67
2023/09/11 05:13:38;;;;;;;28.88;14.27;;;19.80;99.90;;;;;;5029751;28;20049;-66
2023/09/11 05:16:05;;;;;;;25.90;13.68;;;19.80;99.90;;;;;;5031718;28;20050;-66
2023/09/11 05:18:32;;;;;;;24.88;12.02;;;19.90;99.90;;;;;;5013617;28;20107;-67
2023/09/11 05:20:59;;;;;;;32.05;13.35;;;20.00;99.90;;;;;;5013286;28;20057;-67
2023/09/11 05:23:26;;;;;;;24.08;13.13;;;20.00;99.90;;;;;;5014220;28;20045;-67
2023/09/11 05:25:53;;;;;;;20.10;12.70;;;20.00;99.90;;;;;;5030682;28;20340;-67
2023/09/11 05:28:20;;;;;;;27.58;12.32;;;20.10;99.90;;;;;;5029932;28;20053;-66
2023/09/11 05:30:50;;;;;;;24.92;12.95;;;20.20;99.90;;;;;;5012925;28;20448;-67
2023/09/11 05:33:17;;;;;;;24.40;13.38;;;20.20;99.90;;;;;;5032165;28;20473;-67
2023/09/11 05:35:45;;;;;;;24.15;13.23;;;20.30;99.90;;;;;;5027397;28;20060;-66
2023/09/11 05:38:12;;;;;;;25.17;12.35;;;20.30;99.90;;;;;;5012461;28;20111;-68
2023/09/11 05:40:39;;;;;;;27.27;12.95;;;20.40;99.90;;;;;;5012915;28;20124;-68
2023/09/11 05:43:06;;;;;;;22.20;12.70;;;20.40;99.90;;;;;;5031834;28;20045;-66
2023/09/11 05:45:33;;;;;;;25.80;11.55;;;20.50;99.90;;;;;;5029315;28;20052;-67
2023/09/11 05:48:01;;;;;;;20.45;12.55;;;20.50;99.90;;;;;;5013603;28;20107;-67
2023/09/11 05:50:28;;;;;;;22.45;12.20;;;20.60;99.90;;;;;;5029605;28;20076;-67
2023/09/11 05:52:55;;;;;;;21.73;11.50;;;20.60;99.90;;;;;;5013991;28;20712;-66
2023/09/11 05:55:22;;;;;;;23.27;12.18;;;20.70;99.90;;;;;;5012528;28;20095;-67
2023/09/11 05:57:49;;;;;;;23.50;12.70;;;20.70;99.90;;;;;;5013040;28;20050;-68
2023/09/11 06:00:16;;;;;;;21.83;12.57;;;20.80;99.90;;;;;;5028820;28;20049;-68
2023/09/11 06:02:45;;;;;;;25.75;12.07;;;20.90;99.90;;;;;;5013428;28;20061;-68
2023/09/11 06:05:15;;;;;;;20.10;12.33;;;20.90;99.90;;;;;;5010355;28;20045;-68
2023/09/11 06:07:42;;;;;;;20.42;12.13;;;21.00;99.90;;;;;;5012402;28;20064;-67
2023/09/11 06:10:12;;;;;;;26.27;11.77;;;21.10;99.90;;;;;;5012055;28;20103;-66
2023/09/11 06:12:39;;;;;;;21.92;11.35;;;21.20;99.90;;;;;;5011727;28;20107;-67
2023/09/11 06:15:07;;;;;;;25.40;13.35;;;21.20;99.90;;;;;;5013336;28;20096;-67
2023/09/11 06:17:34;;;;;;;19.98;11.82;;;21.40;99.90;;;;;;5012651;28;20045;-67
2023/09/11 06:20:01;;;;;;;24.33;11.75;;;21.40;99.90;;;;;;5013263;28;20046;-68
2023/09/11 06:22:29;;;;;;;24.02;10.82;;;21.50;99.90;;;;;;5031433;28;20452;-67
2023/09/11 06:24:56;;;;;;;30.35;12.35;;;21.60;99.90;;;;;;5031254;28;20436;-68
2023/09/11 06:27:23;;;;;;;26.52;12.50;;;21.70;99.90;;;;;;5031006;28;20489;-69
2023/09/11 06:29:50;;;;;;;24.65;11.85;;;21.80;99.90;;;;;;5013277;28;20048;-68
2023/09/11 06:32:17;;;;;;;23.58;11.85;;;22.00;99.90;;;;;;5013715;28;20056;-68
2023/09/11 06:34:44;;;;;;;21.10;11.95;;;22.30;99.90;;;;;;5032127;28;20060;-68
2023/09/11 06:37:10;;;;;;;24.92;11.65;;;22.60;99.90;;;;;;5017170;28;20148;-68
2023/09/11 06:39:39;;;;;;;24.92;12.25;;;22.70;99.90;;;;;;5017501;28;20053;-67
2023/09/11 06:42:06;;;;;;;30.42;11.98;;;22.70;99.90;;;;;;5017880;28;20115;-68
2023/09/11 06:44:33;;;;;;;26.70;11.90;;;22.60;99.90;;;;;;5017886;28;20042;-68
2023/09/11 06:46:59;;;;;;;23.88;11.32;;;22.70;99.90;;;;;;5035254;28;20057;-68
2023/09/11 06:49:26;;;;;;;20.80;11.18;;;22.70;99.90;;;;;;5018096;28;20049;-68
2023/09/11 06:51:54;;;;;;;26.90;11.00;;;23.00;99.90;;;;;;5035626;28;20103;-68
2023/09/11 06:54:23;;;;;;;20.17;10.60;;;23.50;99.90;;;;;;5035178;28;20045;-68
2023/09/11 06:56:51;;;;;;;23.63;10.35;;;24.40;99.90;;;;;;5035778;28;20065;-68
2023/09/11 06:59:18;;;;;;;18.35;10.10;;;25.30;99.90;;;;;;5035131;28;20127;-68
2023/09/11 07:01:45;;;;;;;30.20;11.05;;;25.90;99.90;;;;;;5035430;28;20111;-69
2023/09/11 07:04:11;;;;;;;22.27;11.43;;;26.50;99.90;;;;;;5017497;28;20052;-68
2023/09/11 07:06:38;;;;;;;18.40;9.77;;;27.00;99.90;;;;;;5035044;28;20053;-68
2023/09/11 07:09:06;;;;;;;25.23;10.20;;;27.40;99.90;;;;;;5035602;28;20136;-67
2023/09/11 07:11:32;;;;;;;18.10;10.15;;;27.60;99.90;;;;;;5017403;28;20125;-67
2023/09/11 07:14:02;;;;;;;21.77;9.57;;;28.00;99.90;;;;;;5017098;28;20053;-68
2023/09/11 07:16:29;;;;;;;20.83;9.48;;;28.30;99.90;;;;;;5035507;28;20060;-68
2023/09/11 07:18:56;;;;;;;20.23;9.35;;;28.80;99.90;;;;;;5035391;28;20045;-68
2023/09/11 07:21:23;;;;;;;19.85;10.02;;;29.30;99.90;;;;;;5016900;28;20048;-68
2023/09/11 07:23:50;;;;;;;20.65;9.40;;;29.80;99.90;;;;;;5017184;28;20045;-68
2023/09/11 07:26:17;;;;;;;19.38;9.57;;;30.20;99.90;;;;;;5017198;28;20038;-68
2023/09/11 07:28:54;;;;;;;22.30;9.57;;;30.50;99.90;;;;;;5016910;28;20049;-68
2023/09/11 07:31:22;;;;;;;21.67;9.75;;;30.50;99.70;;;;;;5017483;28;20132;-69
2023/09/11 07:33:50;;;;;;;17.40;8.75;;;30.50;99.90;;;;;;5017088;28;20053;-68
2023/09/11 07:36:19;;;;;;;25.17;8.77;;;30.60;99.90;;;;;;5016488;28;20053;-68
2023/09/11 07:38:46;;;;;;;23.70;9.00;;;30.60;99.90;;;;;;5015083;28;20095;-69
2023/09/11 07:41:15;;;;;;;15.60;9.38;;;30.80;99.90;;;;;;5017195;28;20103;-68
2023/09/11 07:43:42;;;;;;;14.82;9.18;;;30.70;99.60;;;;;;5016450;28;20056;-68
2023/09/11 07:46:09;;;;;;;14.68;8.25;;;30.70;99.80;;;;;;5017017;28;20101;-67
2023/09/11 07:48:37;;;;;;;15.38;9.10;;;30.90;99.60;;;;;;5015030;28;20045;-68
2023/09/11 07:51:04;;;;;;;17.50;8.00;;;31.10;98.20;;;;;;5034722;28;20041;-68
2023/09/11 07:53:31;;;;;;;17.90;9.10;;;31.60;98.80;;;;;;5034858;28;20048;-68
2023/09/11 07:55:58;;;;;;;21.98;8.73;;;31.90;98.10;;;;;;5034230;28;20405;-69
2023/09/11 07:58:25;;;;;;;16.23;8.57;;;32.30;97.60;;;;;;5034780;28;20049;-69
2023/09/11 08:00:52;;;;;;;12.07;7.32;;;32.50;97.10;;;;;;5016922;28;20456;-69
2023/09/11 08:03:19;;;;;;;16.73;8.38;;;32.80;96.60;;;;;;5012649;28;20379;-68
2023/09/11 08:05:47;;;;;;;16.83;8.07;;;33.30;96.00;;;;;;5013427;28;20061;-69
2023/09/11 08:08:14;;;;;;;13.90;7.70;;;33.60;95.10;;;;;;5014037;28;20049;-69
2023/09/11 08:10:41;;;;;;;12.20;7.30;;;33.70;94.90;;;;;;5013649;28;20050;-69
2023/09/11 08:13:08;;;;;;;13.20;7.10;;;33.60;94.30;;;;;;5013915;28;20092;-69
2023/09/11 08:15:35;;;;;;;15.77;7.03;;;34.00;93.70;;;;;;5012587;28;20387;-69
2023/09/11 08:18:02;;;;;;;16.90;7.10;;;33.90;93.20;;;;;;5012585;28;20050;-68
2023/09/11 08:20:29;;;;;;;13.63;7.80;;;33.90;92.90;;;;;;5013131;28;20057;-69
2023/09/11 08:22:58;;;;;;;16.85;7.55;;;34.20;92.90;;;;;;5013273;28;20137;-69
2023/09/11 08:25:25;;;;;;;14.80;7.20;;;34.20;92.40;;;;;;5013502;28;20469;-69
2023/09/11 08:27:53;;;;;;;13.90;6.70;;;34.20;92.40;;;;;;5013823;28;20461;-69
2023/09/11 08:30:20;;;;;;;16.02;7.47;;;34.10;91.80;;;;;;5012761;28;20058;-69
2023/09/11 08:32:47;;;;;;;16.02;7.35;;;34.10;91.70;;;;;;5012392;28;20486;-68
2023/09/11 08:35:14;;;;;;;17.50;6.70;;;34.40;91.80;;;;;;5012817;28;20107;-69
2023/09/11 08:37:40;;;;;;;19.00;6.93;;;35.00;91.50;;;;;;5012397;28;20081;-69
2023/09/11 08:40:10;;;;;;;15.57;7.00;;;35.30;91.30;;;;;;5013635;28;20068;-69
2023/09/11 08:42:37;;;;;;;14.60;6.55;;;35.60;90.80;;;;;;5012630;28;20100;-69
2023/09/11 08:45:04;;;;;;;10.77;6.20;;;36.00;90.40;;;;;;5011958;28;20050;-69
2023/09/11 08:47:32;;;;;;;16.73;5.90;;;36.00;90.20;;;;;;5013246;28;20046;-69
2023/09/11 08:50:04;;;;;;;12.82;6.18;;;36.30;89.70;;;;;;5013363;28;20057;-69
2023/09/11 08:52:32;;;;;;;12.88;6.55;;;36.70;89.10;;;;;;5012128;28;20096;-69
2023/09/11 08:55:04;;;;;;;13.90;6.47;;;36.50;87.70;;;;;;5013303;28;20045;-69
2023/09/11 08:57:34;;;;;;;13.57;6.00;;;36.80;85.50;;;;;;5012223;28;20042;-69
2023/09/11 09:00:05;;;;;;;11.75;6.45;;;37.00;86.30;;;;;;5011578;28;20060;-69
2023/09/11 09:02:34;;;;;;;12.90;6.65;;;37.00;86.20;;;;;;5009989;28;20085;-69
2023/09/11 09:05:03;;;;;;;12.00;5.68;;;36.90;85.20;;;;;;5013046;28;20042;-68
2023/09/11 09:07:32;;;;;;;13.30;6.05;;;37.10;85.30;;;;;;5010478;28;20054;-69
2023/09/11 09:09:59;;;;;;;14.60;6.13;;;37.70;84.50;;;;;;5012140;28;20054;-69
2023/09/11 09:12:27;;;;;;;9.73;6.00;;;37.90;83.10;;;;;;5012471;28;20060;-69
2023/09/11 09:14:55;;;;;;;11.35;5.32;;;37.70;83.40;;;;;;5012178;28;20065;-69
2023/09/11 09:17:22;;;;;;;12.02;6.07;;;38.20;83.10;;;;;;5012118;28;20054;-69
2023/09/11 09:19:49;;;;;;;8.88;5.82;;;38.50;82.60;;;;;;5011863;28;20060;-69
2023/09/11 09:22:17;;;;;;;10.95;6.40;;;38.40;81.30;;;;;;5011377;28;20042;-69
2023/09/11 09:24:50;;;;;;;9.63;5.47;;;38.10;80.90;;;;;;5011540;28;20101;-69
2023/09/11 09:27:17;;;;;;;12.43;6.07;;;37.20;80.80;;;;;;5011253;28;20064;-69
2023/09/11 09:29:44;;;;;;;13.77;6.55;;;37.50;82.50;;;;;;5010006;28;20493;-69
2023/09/11 09:32:13;;;;;;;11.07;6.28;;;37.30;81.10;;;;;;5011672;28;20046;-68
2023/09/11 09:34:50;;;;;;;8.73;5.80;;;37.70;81.70;;;;;;5009264;28;20050;-69
2023/09/11 09:37:18;;;;;;;10.18;6.18;;;37.90;80.40;;;;;;5011700;28;20320;-68
2023/09/11 09:39:48;;;;;;;12.40;6.47;;;38.00;80.40;;;;;;5011694;28;20054;-70
2023/09/11 09:42:15;;;;;;;9.85;5.72;;;37.80;81.40;;;;;;5011958;28;20056;-69
2023/09/11 09:44:45;;;;;;;12.63;6.13;;;37.50;81.10;;;;;;5012347;28;20050;-69
2023/09/11 09:47:15;;;;;;;13.25;7.35;;;38.10;80.50;;;;;;5011329;28;20471;-70
2023/09/11 09:49:48;;;;;;;12.23;6.47;;;38.20;79.10;;;;;;5010741;28;20096;-70
2023/09/11 09:52:17;;;;;;;13.32;6.63;;;37.80;77.90;;;;;;5011289;28;20050;-70
2023/09/11 09:54:47;;;;;;;15.13;6.55;;;38.10;78.70;;;;;;5011616;28;20428;-69
2023/09/11 09:57:15;;;;;;;10.27;7.07;;;38.10;78.50;;;;;;5010024;28;20049;-70
2023/09/11 09:59:43;;;;;;;9.50;6.38;;;38.20;78.50;;;;;;5011345;28;20050;-70
2023/09/11 10:02:12;;;;;;;15.60;7.30;;;38.10;78.50;;;;;;5010393;28;20058;-70
2023/09/11 10:04:40;;;;;;;14.27;7.05;;;38.10;78.60;;;;;;5011623;28;20517;-69
2023/09/11 10:07:08;;;;;;;12.25;7.15;;;38.50;78.80;;;;;;5011856;28;20057;-70
2023/09/11 10:09:35;;;;;;;14.95;7.55;;;38.50;78.50;;;;;;5011215;28;20050;-70
2023/09/11 10:12:04;;;;;;;9.48;6.40;;;38.50;78.30;;;;;;5011480;28;20049;-69
2023/09/11 10:14:31;;;;;;;15.45;6.85;;;38.70;78.50;;;;;;5011766;28;20050;-69
2023/09/11 10:16:59;;;;;;;15.23;7.68;;;39.00;78.50;;;;;;5011334;28;20049;-69
2023/09/11 10:19:30;;;;;;;13.30;6.80;;;39.30;77.90;;;;;;5010073;28;20074;-69
2023/09/11 10:21:58;;;;;;;13.77;7.40;;;39.30;77.50;;;;;;5010982;28;20049;-69
2023/09/11 10:24:26;;;;;;;14.63;7.00;;;39.00;77.60;;;;;;5010418;28;20422;-70
2023/09/11 10:26:56;;;;;;;14.52;7.32;;;39.20;77.40;;;;;;5010802;28;20041;-70
2023/09/11 10:29:31;;;;;;;12.68;7.35;;;39.40;76.30;;;;;;5011080;28;20054;-70
2023/09/11 10:32:07;;;;;;;10.27;7.28;;;39.20;77.00;;;;;;5011353;28;20477;-70
2023/09/11 10:34:35;;;;;;;11.57;7.10;;;39.10;76.70;;;;;;5011499;28;20406;-70
2023/09/11 10:37:06;;;;;;;13.48;6.82;;;39.20;77.10;;;;;;5011175;28;20049;-70
2023/09/11 10:39:36;;;;;;;14.23;7.78;;;39.60;77.00;;;;;;5010528;28;20054;-70
2023/09/11 10:42:03;;;;;;;16.05;7.53;;;39.30;76.80;;;;;;5010932;28;20050;-70
2023/09/11 10:44:36;;;;;;;11.85;8.20;;;39.70;77.00;;;;;;5010137;28;20049;-70
2023/09/11 10:47:04;;;;;;;11.65;7.82;;;40.00;75.60;;;;;;5011143;28;20069;-70
2023/09/11 10:49:36;;;;;;;15.52;7.90;;;39.50;76.70;;;;;;5011562;28;20153;-70
2023/09/11 10:52:07;;;;;;;14.27;8.00;;;39.70;76.50;;;;;;5010914;28;20043;-69
2023/09/11 10:54:35;;;;;;;13.45;7.85;;;40.10;76.30;;;;;;5011768;28;20050;-69
2023/09/11 10:57:02;;;;;;;13.25;7.93;;;40.00;76.60;;;;;;5011403;28;20125;-69
2023/09/11 10:59:30;;;;;;;9.25;6.72;;;39.90;76.20;;;;;;5010260;28;20512;-69
2023/09/11 11:01:58;;;;;;;12.37;6.70;;;39.70;75.80;;;;;;5008621;28;20058;-69
2023/09/11 11:04:25;;;;;;;10.38;7.38;;;39.90;75.70;;;;;;5010323;28;20096;-69
2023/09/11 11:06:55;;;;;;;11.45;7.68;;;40.00;76.20;;;;;;5010220;28;20049;-70
2023/09/11 11:09:26;;;;;;;13.35;7.30;;;39.70;76.20;;;;;;5010435;28;20136;-69
2023/09/11 11:11:58;;;;;;;14.73;7.43;;;39.90;76.20;;;;;;5011899;28;20056;-69
2023/09/11 11:14:24;;;;;;;13.50;7.05;;;39.50;75.90;;;;;;5011161;28;20053;-70
2023/09/11 11:16:56;;;;;;;11.23;7.20;;;39.50;76.00;;;;;;5011373;28;20061;-71
2023/09/11 11:19:28;;;;;;;16.48;6.82;;;39.80;75.20;;;;;;5011799;28;20146;-70
2023/09/11 11:21:55;;;;;;;11.48;7.05;;;39.50;75.90;;;;;;5012529;28;20100;-69
2023/09/11 11:24:25;;;;;;;16.25;8.25;;;39.30;76.60;;;;;;5015359;28;20069;-70
2023/09/11 11:26:56;;;;;;;12.40;7.63;;;39.60;76.20;;;;;;5013701;28;20057;-69
2023/09/11 11:29:23;;;;;;;11.05;6.85;;;39.50;75.40;;;;;;5014093;28;20130;-71
2023/09/11 11:31:54;;;;;;;15.30;8.63;;;39.80;75.60;;;;;;5013951;28;20057;-68
2023/09/11 11:34:27;;;;;;;9.32;6.57;;;39.70;75.30;;;;;;5013438;28;20473;-69
2023/09/11 11:36:58;;;;;;;13.82;7.60;;;39.60;75.60;;;;;;5012577;28;20057;-69
2023/09/11 11:39:27;;;;;;;12.27;7.38;;;39.80;76.00;;;;;;5014941;28;20108;-69
2023/09/11 11:41:56;;;;;;;11.75;7.82;;;40.00;75.60;;;;;;5013668;28;20054;-70
2023/09/11 11:44:24;;;;;;;11.30;7.80;;;39.90;75.90;;;;;;5014042;28;20046;-70
2023/09/11 11:46:52;;;;;;;9.30;6.80;;;39.80;75.60;;;;;;5014643;28;20336;-69
2023/09/11 11:49:20;;;;;;;11.93;8.02;;;40.10;75.20;;;;;;5013465;28;20054;-69
2023/09/11 11:51:47;;;;;;;12.27;6.88;;;39.60;75.30;;;;;;5013661;28;20069;-69
2023/09/11 11:54:26;;;;;;;14.20;6.68;;;39.90;76.00;;;;;;5013429;28;20048;-70
2023/09/11 11:56:57;;;;;;;11.98;8.15;;;39.80;75.10;;;;;;5013241;28;20461;-70
2023/09/11 11:59:30;;;;;;;11.13;6.97;;;39.70;75.20;;;;;;5013434;28;20049;-70
2023/09/11 12:01:57;;;;;;;11.40;6.45;;;39.60;75.20;;;;;;5019983;28;20057;-70
2023/09/11 12:04:25;;;;;;;11.93;7.78;;;39.50;76.00;;;;;;5016381;28;20042;-70
2023/09/11 12:06:54;;;;;;;8.57;6.60;;;39.60;75.90;;;;;;5034231;28;20393;-70
2023/09/11 12:09:21;;;;;;;13.73;7.15;;;40.10;76.90;;;;;;5015784;28;20135;-69
2023/09/11 12:11:52;;;;;;;9.52;6.47;;;40.10;76.30;;;;;;5016371;28;20443;-70
2023/09/11 12:14:20;;;;;;;8.63;4.13;;;39.90;75.90;;;;;;5016661;28;20417;-70
2023/09/11 12:16:47;;;;;;;8.68;4.65;;;40.30;74.40;;;;;;5015780;28;20103;-70
2023/09/11 12:19:17;;;;;;;7.05;4.38;;;40.20;72.90;;;;;;5032036;28;20046;-70
2023/09/11 12:21:44;;;;;;;8.70;5.38;;;40.60;73.00;;;;;;5016453;28;20065;-70
2023/09/11 12:24:11;;;;;;;10.30;5.63;;;40.80;72.70;;;;;;5033689;28;20045;-70
2023/09/11 12:26:38;;;;;;;6.80;4.20;;;40.70;72.60;;;;;;5033973;28;20049;-70
2023/09/11 12:29:07;;;;;;;9.32;3.38;;;40.60;71.80;;;;;;5034286;28;20403;-69
2023/09/11 12:31:34;;;;;;;10.68;3.85;;;40.40;70.60;;;;;;5015649;28;20409;-69
2023/09/11 12:34:01;;;;;;;8.02;3.15;;;39.90;70.60;;;;;;5015403;28;20057;-69
2023/09/11 12:36:29;;;;;;;7.40;3.83;;;40.40;71.20;;;;;;5016349;28;20041;-69